sensor_id;sensor_type;location;lat;lon;timestamp;P1;durP1;ratioP1;P2;durP2;ratioP2
26040;SDS011;13816;53.628;9.950;2024-03-08T00:02:01;25.90;;;16.23;;
26040;SDS011;13816;53.628;9.950;2024-03-08T00:04:29;25.00;;;17.90;;
26040;SDS011;13816;53.628;9.950;2024-03-08T00:06:57;26.47;;;17.93;;
26040;SDS011;13816;53.628;9.950;2024-03-08T00:09:24;19.80;;;14.73;;
26040;SDS011;13816;53.628;9.950;2024-03-08T00:11:53;29.03;;;18.10;;
26040;SDS011;13816;53.628;9.950;2024-03-08T00:14:21;26.77;;;18.37;;
26040;SDS011;13816;53.628;9.950;2024-03-08T00:16:48;29.10;;;18.10;;
26040;SDS011;13816;53.628;9.950;2024-03-08T00:19:16;23.37;;;17.27;;
26040;SDS011;13816;53.628;9.950;2024-03-08T00:21:44;23.50;;;16.90;;
26040;SDS011;13816;53.628;9.950;2024-03-08T00:24:11;25.77;;;16.93;;
26040;SDS011;13816;53.628;9.950;2024-03-08T00:26:39;30.33;;;17.93;;
26040;SDS011;13816;53.628;9.950;2024-03-08T00:29:06;21.53;;;16.07;;
26040;SDS011;13816;53.628;9.950;2024-03-08T00:31:34;28.77;;;16.77;;
26040;SDS011;13816;53.628;9.950;2024-03-08T00:34:01;25.60;;;18.03;;
26040;SDS011;13816;53.628;9.950;2024-03-08T00:36:29;25.00;;;17.87;;
26040;SDS011;13816;53.628;9.950;2024-03-08T00:38:56;27.03;;;16.90;;
26040;SDS011;13816;53.628;9.950;2024-03-08T00:41:27;22.40;;;16.30;;
26040;SDS011;13816;53.628;9.950;2024-03-08T00:43:55;26.50;;;17.07;;
26040;SDS011;13816;53.628;9.950;2024-03-08T00:46:23;27.27;;;16.23;;
26040;SDS011;13816;53.628;9.950;2024-03-08T00:48:50;25.93;;;16.40;;
26040;SDS011;13816;53.628;9.950;2024-03-08T00:51:18;28.30;;;17.80;;
26040;SDS011;13816;53.628;9.950;2024-03-08T00:53:45;27.47;;;16.97;;
26040;SDS011;13816;53.628;9.950;2024-03-08T00:56:13;26.20;;;17.27;;
26040;SDS011;13816;53.628;9.950;2024-03-08T00:58:40;28.87;;;17.53;;
26040;SDS011;13816;53.628;9.950;2024-03-08T01:01:08;29.57;;;16.80;;
26040;SDS011;13816;53.628;9.950;2024-03-08T01:03:36;27.13;;;17.80;;
26040;SDS011;13816;53.628;9.950;2024-03-08T01:06:03;24.47;;;15.87;;
26040;SDS011;13816;53.628;9.950;2024-03-08T01:08:31;29.03;;;18.30;;
26040;SDS011;13816;53.628;9.950;2024-03-08T01:10:58;23.90;;;16.83;;
26040;SDS011;13816;53.628;9.950;2024-03-08T01:13:26;29.93;;;16.90;;
26040;SDS011;13816;53.628;9.950;2024-03-08T01:15:54;26.73;;;18.33;;
26040;SDS011;13816;53.628;9.950;2024-03-08T01:18:21;27.23;;;16.90;;
26040;SDS011;13816;53.628;9.950;2024-03-08T01:20:49;24.60;;;15.87;;
26040;SDS011;13816;53.628;9.950;2024-03-08T01:23:17;25.13;;;18.20;;
26040;SDS011;13816;53.628;9.950;2024-03-08T01:25:44;27.30;;;18.23;;
26040;SDS011;13816;53.628;9.950;2024-03-08T01:28:12;25.50;;;16.00;;
26040;SDS011;13816;53.628;9.950;2024-03-08T01:30:39;29.03;;;18.53;;
26040;SDS011;13816;53.628;9.950;2024-03-08T01:33:09;33.40;;;16.93;;
26040;SDS011;13816;53.628;9.950;2024-03-08T01:35:36;25.83;;;16.67;;
26040;SDS011;13816;53.628;9.950;2024-03-08T01:38:03;32.20;;;16.53;;
26040;SDS011;13816;53.628;9.950;2024-03-08T01:40:31;29.70;;;17.60;;
26040;SDS011;13816;53.628;9.950;2024-03-08T01:43:14;24.13;;;15.97;;
26040;SDS011;13816;53.628;9.950;2024-03-08T01:45:42;25.60;;;16.77;;
26040;SDS011;13816;53.628;9.950;2024-03-08T01:48:09;27.70;;;16.33;;
26040;SDS011;13816;53.628;9.950;2024-03-08T01:50:37;28.13;;;16.40;;
26040;SDS011;13816;53.628;9.950;2024-03-08T01:53:06;29.23;;;20.07;;
26040;SDS011;13816;53.628;9.950;2024-03-08T01:55:34;35.13;;;19.40;;
26040;SDS011;13816;53.628;9.950;2024-03-08T01:58:03;39.53;;;20.17;;
26040;SDS011;13816;53.628;9.950;2024-03-08T02:00:31;25.53;;;18.17;;
26040;SDS011;13816;53.628;9.950;2024-03-08T02:02:59;30.47;;;17.57;;
26040;SDS011;13816;53.628;9.950;2024-03-08T02:05:27;32.07;;;18.60;;
26040;SDS011;13816;53.628;9.950;2024-03-08T02:07:55;36.47;;;18.53;;
26040;SDS011;13816;53.628;9.950;2024-03-08T02:10:23;31.83;;;18.90;;
26040;SDS011;13816;53.628;9.950;2024-03-08T02:12:50;27.10;;;17.50;;
26040;SDS011;13816;53.628;9.950;2024-03-08T02:15:18;23.90;;;16.33;;
26040;SDS011;13816;53.628;9.950;2024-03-08T02:17:46;24.97;;;17.60;;
26040;SDS011;13816;53.628;9.950;2024-03-08T02:20:13;23.97;;;16.30;;
26040;SDS011;13816;53.628;9.950;2024-03-08T02:22:41;22.93;;;15.63;;
26040;SDS011;13816;53.628;9.950;2024-03-08T02:25:09;25.87;;;16.70;;
26040;SDS011;13816;53.628;9.950;2024-03-08T02:27:36;25.33;;;16.60;;
26040;SDS011;13816;53.628;9.950;2024-03-08T02:30:04;21.30;;;15.07;;
26040;SDS011;13816;53.628;9.950;2024-03-08T02:32:32;27.97;;;17.00;;
26040;SDS011;13816;53.628;9.950;2024-03-08T02:35:00;24.37;;;16.33;;
26040;SDS011;13816;53.628;9.950;2024-03-08T02:37:27;26.70;;;17.33;;
26040;SDS011;13816;53.628;9.950;2024-03-08T02:39:55;22.77;;;15.00;;
26040;SDS011;13816;53.628;9.950;2024-03-08T02:42:22;25.23;;;17.40;;
26040;SDS011;13816;53.628;9.950;2024-03-08T02:44:50;30.23;;;16.77;;
26040;SDS011;13816;53.628;9.950;2024-03-08T02:47:18;24.73;;;16.40;;
26040;SDS011;13816;53.628;9.950;2024-03-08T02:49:47;27.57;;;17.93;;
26040;SDS011;13816;53.628;9.950;2024-03-08T02:52:16;32.90;;;18.10;;
26040;SDS011;13816;53.628;9.950;2024-03-08T02:54:44;27.77;;;16.27;;
26040;SDS011;13816;53.628;9.950;2024-03-08T02:57:13;34.63;;;17.60;;
26040;SDS011;13816;53.628;9.950;2024-03-08T02:59:42;24.43;;;16.20;;
26040;SDS011;13816;53.628;9.950;2024-03-08T03:02:10;29.00;;;17.27;;
26040;SDS011;13816;53.628;9.950;2024-03-08T03:04:39;26.17;;;16.47;;
26040;SDS011;13816;53.628;9.950;2024-03-08T03:07:06;28.23;;;17.67;;
26040;SDS011;13816;53.628;9.950;2024-03-08T03:09:34;30.23;;;17.23;;
26040;SDS011;13816;53.628;9.950;2024-03-08T03:12:02;28.17;;;16.30;;
26040;SDS011;13816;53.628;9.950;2024-03-08T03:14:29;28.47;;;17.40;;
26040;SDS011;13816;53.628;9.950;2024-03-08T03:16:57;27.03;;;17.87;;
26040;SDS011;13816;53.628;9.950;2024-03-08T03:19:25;28.37;;;18.20;;
26040;SDS011;13816;53.628;9.950;2024-03-08T03:21:54;30.10;;;17.63;;
26040;SDS011;13816;53.628;9.950;2024-03-08T03:24:21;27.87;;;16.03;;
26040;SDS011;13816;53.628;9.950;2024-03-08T03:26:50;34.33;;;18.53;;
26040;SDS011;13816;53.628;9.950;2024-03-08T03:29:18;26.57;;;16.57;;
26040;SDS011;13816;53.628;9.950;2024-03-08T03:31:46;31.20;;;17.50;;
26040;SDS011;13816;53.628;9.950;2024-03-08T03:34:14;29.73;;;17.87;;
26040;SDS011;13816;53.628;9.950;2024-03-08T03:36:41;27.80;;;17.53;;
26040;SDS011;13816;53.628;9.950;2024-03-08T03:39:11;28.07;;;17.17;;
26040;SDS011;13816;53.628;9.950;2024-03-08T03:41:43;29.27;;;18.33;;
26040;SDS011;13816;53.628;9.950;2024-03-08T03:44:12;26.27;;;16.73;;
26040;SDS011;13816;53.628;9.950;2024-03-08T03:46:43;25.60;;;18.07;;
26040;SDS011;13816;53.628;9.950;2024-03-08T03:49:11;27.57;;;17.20;;
26040;SDS011;13816;53.628;9.950;2024-03-08T03:51:38;29.13;;;16.83;;
26040;SDS011;13816;53.628;9.950;2024-03-08T03:54:06;27.40;;;17.07;;
26040;SDS011;13816;53.628;9.950;2024-03-08T03:56:34;28.50;;;17.87;;
26040;SDS011;13816;53.628;9.950;2024-03-08T03:59:01;27.23;;;18.63;;
26040;SDS011;13816;53.628;9.950;2024-03-08T04:01:29;26.20;;;18.23;;
26040;SDS011;13816;53.628;9.950;2024-03-08T04:03:56;27.20;;;17.30;;
26040;SDS011;13816;53.628;9.950;2024-03-08T04:06:24;25.23;;;17.50;;
26040;SDS011;13816;53.628;9.950;2024-03-08T04:08:51;28.70;;;18.63;;
26040;SDS011;13816;53.628;9.950;2024-03-08T04:11:19;26.60;;;17.37;;
26040;SDS011;13816;53.628;9.950;2024-03-08T04:13:46;24.93;;;16.23;;
26040;SDS011;13816;53.628;9.950;2024-03-08T04:16:14;30.00;;;18.20;;
26040;SDS011;13816;53.628;9.950;2024-03-08T04:18:43;26.30;;;17.20;;
26040;SDS011;13816;53.628;9.950;2024-03-08T04:21:10;30.87;;;18.80;;
26040;SDS011;13816;53.628;9.950;2024-03-08T04:23:38;26.87;;;17.00;;
26040;SDS011;13816;53.628;9.950;2024-03-08T04:26:06;28.87;;;17.63;;
26040;SDS011;13816;53.628;9.950;2024-03-08T04:28:35;25.77;;;16.40;;
26040;SDS011;13816;53.628;9.950;2024-03-08T04:31:03;27.77;;;17.60;;
26040;SDS011;13816;53.628;9.950;2024-03-08T04:33:31;27.43;;;17.70;;
26040;SDS011;13816;53.628;9.950;2024-03-08T04:35:58;28.13;;;17.77;;
26040;SDS011;13816;53.628;9.950;2024-03-08T04:38:26;27.53;;;17.30;;
26040;SDS011;13816;53.628;9.950;2024-03-08T04:40:53;31.53;;;18.60;;
26040;SDS011;13816;53.628;9.950;2024-03-08T04:43:21;29.47;;;17.80;;
26040;SDS011;13816;53.628;9.950;2024-03-08T04:45:48;30.93;;;17.23;;
26040;SDS011;13816;53.628;9.950;2024-03-08T04:48:16;27.07;;;17.23;;
26040;SDS011;13816;53.628;9.950;2024-03-08T04:50:43;31.80;;;16.97;;
26040;SDS011;13816;53.628;9.950;2024-03-08T04:53:11;25.70;;;16.10;;
26040;SDS011;13816;53.628;9.950;2024-03-08T04:55:38;28.80;;;17.67;;
26040;SDS011;13816;53.628;9.950;2024-03-08T04:58:06;32.37;;;17.50;;
26040;SDS011;13816;53.628;9.950;2024-03-08T05:00:34;25.90;;;17.53;;
26040;SDS011;13816;53.628;9.950;2024-03-08T05:03:01;24.33;;;15.73;;
26040;SDS011;13816;53.628;9.950;2024-03-08T05:05:29;34.23;;;17.30;;
26040;SDS011;13816;53.628;9.950;2024-03-08T05:07:57;28.57;;;16.83;;
26040;SDS011;13816;53.628;9.950;2024-03-08T05:10:25;34.00;;;17.90;;
26040;SDS011;13816;53.628;9.950;2024-03-08T05:12:53;33.23;;;16.70;;
26040;SDS011;13816;53.628;9.950;2024-03-08T05:15:22;22.90;;;16.67;;
26040;SDS011;13816;53.628;9.950;2024-03-08T05:17:50;30.50;;;17.33;;
26040;SDS011;13816;53.628;9.950;2024-03-08T05:20:17;26.43;;;16.37;;
26040;SDS011;13816;53.628;9.950;2024-03-08T05:22:46;27.50;;;17.80;;
26040;SDS011;13816;53.628;9.950;2024-03-08T05:25:13;28.33;;;17.53;;
26040;SDS011;13816;53.628;9.950;2024-03-08T05:27:41;28.40;;;16.80;;
26040;SDS011;13816;53.628;9.950;2024-03-08T05:30:08;24.50;;;16.30;;
26040;SDS011;13816;53.628;9.950;2024-03-08T05:32:42;27.47;;;17.70;;
26040;SDS011;13816;53.628;9.950;2024-03-08T05:35:12;28.20;;;16.70;;
26040;SDS011;13816;53.628;9.950;2024-03-08T05:37:43;28.27;;;16.97;;
26040;SDS011;13816;53.628;9.950;2024-03-08T05:40:10;28.10;;;17.00;;
26040;SDS011;13816;53.628;9.950;2024-03-08T05:42:41;27.00;;;16.90;;
26040;SDS011;13816;53.628;9.950;2024-03-08T05:45:09;29.50;;;17.57;;
26040;SDS011;13816;53.628;9.950;2024-03-08T05:47:38;30.43;;;17.87;;
26040;SDS011;13816;53.628;9.950;2024-03-08T05:50:06;31.63;;;17.57;;
26040;SDS011;13816;53.628;9.950;2024-03-08T05:52:37;31.97;;;17.93;;
26040;SDS011;13816;53.628;9.950;2024-03-08T05:55:05;31.10;;;18.43;;
26040;SDS011;13816;53.628;9.950;2024-03-08T05:57:34;25.63;;;17.97;;
26040;SDS011;13816;53.628;9.950;2024-03-08T06:00:04;26.27;;;16.43;;
26040;SDS011;13816;53.628;9.950;2024-03-08T06:02:38;28.93;;;18.33;;
26040;SDS011;13816;53.628;9.950;2024-03-08T06:05:08;28.43;;;17.67;;
26040;SDS011;13816;53.628;9.950;2024-03-08T06:07:39;28.50;;;17.77;;
26040;SDS011;13816;53.628;9.950;2024-03-08T06:10:08;27.83;;;16.73;;
26040;SDS011;13816;53.628;9.950;2024-03-08T06:12:36;27.00;;;16.80;;
26040;SDS011;13816;53.628;9.950;2024-03-08T06:15:08;30.20;;;18.50;;
26040;SDS011;13816;53.628;9.950;2024-03-08T06:17:36;30.53;;;18.23;;
26040;SDS011;13816;53.628;9.950;2024-03-08T06:20:04;28.40;;;17.33;;
26040;SDS011;13816;53.628;9.950;2024-03-08T06:22:37;25.20;;;16.27;;
26040;SDS011;13816;53.628;9.950;2024-03-08T06:25:10;26.73;;;18.40;;
26040;SDS011;13816;53.628;9.950;2024-03-08T06:27:42;29.20;;;18.53;;
26040;SDS011;13816;53.628;9.950;2024-03-08T06:30:10;29.20;;;17.27;;
26040;SDS011;13816;53.628;9.950;2024-03-08T06:32:37;29.80;;;20.10;;
26040;SDS011;13816;53.628;9.950;2024-03-08T06:35:05;32.70;;;18.67;;
26040;SDS011;13816;53.628;9.950;2024-03-08T06:37:33;27.40;;;17.33;;
26040;SDS011;13816;53.628;9.950;2024-03-08T06:40:01;27.83;;;18.10;;
26040;SDS011;13816;53.628;9.950;2024-03-08T06:42:29;30.70;;;20.43;;
26040;SDS011;13816;53.628;9.950;2024-03-08T06:45:02;29.83;;;19.10;;
26040;SDS011;13816;53.628;9.950;2024-03-08T06:47:33;35.70;;;20.80;;
26040;SDS011;13816;53.628;9.950;2024-03-08T06:50:01;35.83;;;21.07;;
26040;SDS011;13816;53.628;9.950;2024-03-08T06:52:28;32.73;;;20.10;;
26040;SDS011;13816;53.628;9.950;2024-03-08T06:54:55;31.13;;;18.80;;
26040;SDS011;13816;53.628;9.950;2024-03-08T06:57:23;32.13;;;21.20;;
26040;SDS011;13816;53.628;9.950;2024-03-08T06:59:51;30.00;;;18.13;;
26040;SDS011;13816;53.628;9.950;2024-03-08T07:02:19;36.50;;;19.90;;
26040;SDS011;13816;53.628;9.950;2024-03-08T07:04:51;37.43;;;22.00;;
26040;SDS011;13816;53.628;9.950;2024-03-08T07:07:19;37.93;;;22.97;;
26040;SDS011;13816;53.628;9.950;2024-03-08T07:09:47;33.50;;;21.50;;
26040;SDS011;13816;53.628;9.950;2024-03-08T07:12:15;38.03;;;21.50;;
26040;SDS011;13816;53.628;9.950;2024-03-08T07:14:43;36.30;;;23.10;;
26040;SDS011;13816;53.628;9.950;2024-03-08T07:17:12;34.33;;;21.43;;
26040;SDS011;13816;53.628;9.950;2024-03-08T07:19:39;32.50;;;20.80;;
26040;SDS011;13816;53.628;9.950;2024-03-08T07:22:07;33.90;;;20.07;;
26040;SDS011;13816;53.628;9.950;2024-03-08T07:24:35;31.83;;;20.83;;
26040;SDS011;13816;53.628;9.950;2024-03-08T07:27:05;33.20;;;20.87;;
26040;SDS011;13816;53.628;9.950;2024-03-08T07:29:33;36.17;;;21.50;;
26040;SDS011;13816;53.628;9.950;2024-03-08T07:32:01;35.20;;;22.10;;
26040;SDS011;13816;53.628;9.950;2024-03-08T07:34:45;37.07;;;21.90;;
26040;SDS011;13816;53.628;9.950;2024-03-08T07:37:13;34.63;;;22.00;;
26040;SDS011;13816;53.628;9.950;2024-03-08T07:39:41;32.97;;;21.17;;
26040;SDS011;13816;53.628;9.950;2024-03-08T07:42:09;37.67;;;21.20;;
26040;SDS011;13816;53.628;9.950;2024-03-08T07:44:38;35.50;;;22.60;;
26040;SDS011;13816;53.628;9.950;2024-03-08T07:47:06;42.00;;;22.00;;
26040;SDS011;13816;53.628;9.950;2024-03-08T07:49:36;31.77;;;20.67;;
26040;SDS011;13816;53.628;9.950;2024-03-08T07:52:06;30.90;;;21.17;;
26040;SDS011;13816;53.628;9.950;2024-03-08T07:54:34;31.83;;;21.30;;
26040;SDS011;13816;53.628;9.950;2024-03-08T07:57:01;33.07;;;21.50;;
26040;SDS011;13816;53.628;9.950;2024-03-08T07:59:29;31.57;;;22.30;;
26040;SDS011;13816;53.628;9.950;2024-03-08T08:01:57;34.20;;;22.57;;
26040;SDS011;13816;53.628;9.950;2024-03-08T08:04:26;29.87;;;21.13;;
26040;SDS011;13816;53.628;9.950;2024-03-08T08:07:18;35.43;;;22.43;;
26040;SDS011;13816;53.628;9.950;2024-03-08T08:09:46;36.23;;;22.50;;
26040;SDS011;13816;53.628;9.950;2024-03-08T08:12:13;30.10;;;22.00;;
26040;SDS011;13816;53.628;9.950;2024-03-08T08:14:40;28.20;;;20.23;;
26040;SDS011;13816;53.628;9.950;2024-03-08T08:17:08;38.90;;;20.53;;
26040;SDS011;13816;53.628;9.950;2024-03-08T08:19:35;36.10;;;20.50;;
26040;SDS011;13816;53.628;9.950;2024-03-08T08:22:03;31.37;;;21.40;;
26040;SDS011;13816;53.628;9.950;2024-03-08T08:24:30;33.67;;;21.70;;
26040;SDS011;13816;53.628;9.950;2024-03-08T08:26:58;32.77;;;21.30;;
26040;SDS011;13816;53.628;9.950;2024-03-08T08:29:26;32.57;;;21.27;;
26040;SDS011;13816;53.628;9.950;2024-03-08T08:31:53;31.90;;;22.00;;
26040;SDS011;13816;53.628;9.950;2024-03-08T08:34:21;28.10;;;20.03;;
26040;SDS011;13816;53.628;9.950;2024-03-08T08:36:50;30.87;;;21.83;;
26040;SDS011;13816;53.628;9.950;2024-03-08T08:39:18;28.27;;;21.13;;
26040;SDS011;13816;53.628;9.950;2024-03-08T08:41:45;28.00;;;21.27;;
26040;SDS011;13816;53.628;9.950;2024-03-08T08:44:13;28.23;;;20.87;;
26040;SDS011;13816;53.628;9.950;2024-03-08T08:46:42;34.63;;;21.50;;
26040;SDS011;13816;53.628;9.950;2024-03-08T08:49:09;27.97;;;20.80;;
26040;SDS011;13816;53.628;9.950;2024-03-08T08:51:38;30.10;;;20.70;;
26040;SDS011;13816;53.628;9.950;2024-03-08T08:54:05;34.00;;;22.10;;
26040;SDS011;13816;53.628;9.950;2024-03-08T08:56:36;29.43;;;20.67;;
26040;SDS011;13816;53.628;9.950;2024-03-08T08:59:03;33.57;;;21.97;;
26040;SDS011;13816;53.628;9.950;2024-03-08T09:01:31;30.37;;;21.30;;
26040;SDS011;13816;53.628;9.950;2024-03-08T09:03:59;30.93;;;20.77;;
26040;SDS011;13816;53.628;9.950;2024-03-08T09:06:27;32.53;;;21.93;;
26040;SDS011;13816;53.628;9.950;2024-03-08T09:08:54;27.30;;;20.80;;
26040;SDS011;13816;53.628;9.950;2024-03-08T09:11:22;29.10;;;20.93;;
26040;SDS011;13816;53.628;9.950;2024-03-08T09:13:49;36.20;;;24.80;;
26040;SDS011;13816;53.628;9.950;2024-03-08T09:16:17;45.23;;;24.43;;
26040;SDS011;13816;53.628;9.950;2024-03-08T09:18:44;31.83;;;22.67;;
26040;SDS011;13816;53.628;9.950;2024-03-08T09:21:12;36.23;;;23.50;;
26040;SDS011;13816;53.628;9.950;2024-03-08T09:23:39;29.13;;;21.27;;
26040;SDS011;13816;53.628;9.950;2024-03-08T09:26:08;29.53;;;20.60;;
26040;SDS011;13816;53.628;9.950;2024-03-08T09:28:39;40.97;;;25.37;;
26040;SDS011;13816;53.628;9.950;2024-03-08T09:31:07;31.23;;;21.10;;
26040;SDS011;13816;53.628;9.950;2024-03-08T09:33:34;36.43;;;22.47;;
26040;SDS011;13816;53.628;9.950;2024-03-08T09:36:02;37.33;;;23.83;;
26040;SDS011;13816;53.628;9.950;2024-03-08T09:38:30;45.53;;;24.47;;
26040;SDS011;13816;53.628;9.950;2024-03-08T09:40:58;37.97;;;23.10;;
26040;SDS011;13816;53.628;9.950;2024-03-08T09:43:25;37.97;;;23.00;;
26040;SDS011;13816;53.628;9.950;2024-03-08T09:45:53;34.27;;;22.00;;
26040;SDS011;13816;53.628;9.950;2024-03-08T09:48:21;29.70;;;20.87;;
26040;SDS011;13816;53.628;9.950;2024-03-08T09:50:49;31.10;;;21.40;;
26040;SDS011;13816;53.628;9.950;2024-03-08T09:53:16;31.30;;;21.37;;
26040;SDS011;13816;53.628;9.950;2024-03-08T09:55:44;42.70;;;22.33;;
26040;SDS011;13816;53.628;9.950;2024-03-08T09:58:12;32.80;;;21.60;;
26040;SDS011;13816;53.628;9.950;2024-03-08T10:00:53;39.27;;;21.57;;
26040;SDS011;13816;53.628;9.950;2024-03-08T10:03:24;29.97;;;20.97;;
26040;SDS011;13816;53.628;9.950;2024-03-08T10:05:56;28.07;;;20.70;;
26040;SDS011;13816;53.628;9.950;2024-03-08T10:08:27;30.10;;;20.77;;
26040;SDS011;13816;53.628;9.950;2024-03-08T10:10:58;27.40;;;19.53;;
26040;SDS011;13816;53.628;9.950;2024-03-08T10:13:26;26.87;;;19.90;;
26040;SDS011;13816;53.628;9.950;2024-03-08T10:15:54;33.03;;;19.47;;
26040;SDS011;13816;53.628;9.950;2024-03-08T10:18:22;32.20;;;19.90;;
26040;SDS011;13816;53.628;9.950;2024-03-08T10:21:06;25.87;;;18.93;;
26040;SDS011;13816;53.628;9.950;2024-03-08T10:23:35;30.00;;;19.80;;
26040;SDS011;13816;53.628;9.950;2024-03-08T10:26:13;25.73;;;18.33;;
26040;SDS011;13816;53.628;9.950;2024-03-08T10:28:45;29.70;;;20.90;;
26040;SDS011;13816;53.628;9.950;2024-03-08T10:31:14;27.10;;;19.13;;
26040;SDS011;13816;53.628;9.950;2024-03-08T10:33:45;33.40;;;19.90;;
26040;SDS011;13816;53.628;9.950;2024-03-08T10:36:13;28.90;;;18.87;;
26040;SDS011;13816;53.628;9.950;2024-03-08T10:38:41;27.27;;;18.90;;
26040;SDS011;13816;53.628;9.950;2024-03-08T10:41:13;31.17;;;20.67;;
26040;SDS011;13816;53.628;9.950;2024-03-08T10:46:21;29.73;;;20.43;;
26040;SDS011;13816;53.628;9.950;2024-03-08T10:48:50;28.47;;;19.93;;
26040;SDS011;13816;53.628;9.950;2024-03-08T10:51:19;29.70;;;21.10;;
26040;SDS011;13816;53.628;9.950;2024-03-08T10:53:47;33.27;;;20.10;;
26040;SDS011;13816;53.628;9.950;2024-03-08T10:56:15;27.20;;;18.87;;
26040;SDS011;13816;53.628;9.950;2024-03-08T10:58:42;28.33;;;18.67;;
26040;SDS011;13816;53.628;9.950;2024-03-08T11:01:10;23.87;;;18.20;;
26040;SDS011;13816;53.628;9.950;2024-03-08T11:06:14;28.00;;;18.00;;
26040;SDS011;13816;53.628;9.950;2024-03-08T11:08:42;29.37;;;17.70;;
26040;SDS011;13816;53.628;9.950;2024-03-08T11:11:23;22.83;;;16.57;;
26040;SDS011;13816;53.628;9.950;2024-03-08T11:13:59;25.90;;;18.00;;
26040;SDS011;13816;53.628;9.950;2024-03-08T11:21:47;24.70;;;17.23;;
26040;SDS011;13816;53.628;9.950;2024-03-08T11:24:24;28.80;;;17.37;;
26040;SDS011;13816;53.628;9.950;2024-03-08T11:26:56;27.93;;;17.97;;
26040;SDS011;13816;53.628;9.950;2024-03-08T11:32:14;24.20;;;16.63;;
26040;SDS011;13816;53.628;9.950;2024-03-08T11:34:42;28.10;;;18.83;;
26040;SDS011;13816;53.628;9.950;2024-03-08T11:37:11;25.63;;;17.90;;
26040;SDS011;13816;53.628;9.950;2024-03-08T11:39:39;31.40;;;18.30;;
26040;SDS011;13816;53.628;9.950;2024-03-08T11:42:07;21.30;;;16.03;;
26040;SDS011;13816;53.628;9.950;2024-03-08T11:44:36;23.80;;;16.70;;
26040;SDS011;13816;53.628;9.950;2024-03-08T11:47:08;24.17;;;17.10;;
26040;SDS011;13816;53.628;9.950;2024-03-08T11:49:41;28.03;;;16.73;;
26040;SDS011;13816;53.628;9.950;2024-03-08T11:52:11;24.70;;;17.47;;
26040;SDS011;13816;53.628;9.950;2024-03-08T11:54:42;28.23;;;17.80;;
26040;SDS011;13816;53.628;9.950;2024-03-08T11:57:10;25.90;;;17.80;;
26040;SDS011;13816;53.628;9.950;2024-03-08T11:59:39;25.83;;;15.80;;
26040;SDS011;13816;53.628;9.950;2024-03-08T12:02:08;23.43;;;16.47;;
26040;SDS011;13816;53.628;9.950;2024-03-08T12:04:39;24.77;;;16.83;;
26040;SDS011;13816;53.628;9.950;2024-03-08T12:07:09;25.43;;;17.53;;
26040;SDS011;13816;53.628;9.950;2024-03-08T12:09:40;23.53;;;16.30;;
26040;SDS011;13816;53.628;9.950;2024-03-08T12:12:13;23.90;;;16.90;;
26040;SDS011;13816;53.628;9.950;2024-03-08T12:14:43;26.10;;;18.10;;
26040;SDS011;13816;53.628;9.950;2024-03-08T12:17:11;21.93;;;16.93;;
26040;SDS011;13816;53.628;9.950;2024-03-08T12:19:45;27.47;;;17.53;;
26040;SDS011;13816;53.628;9.950;2024-03-08T12:22:14;24.37;;;17.07;;
26040;SDS011;13816;53.628;9.950;2024-03-08T12:24:42;31.53;;;17.30;;
26040;SDS011;13816;53.628;9.950;2024-03-08T12:27:18;21.97;;;16.13;;
26040;SDS011;13816;53.628;9.950;2024-03-08T12:29:46;25.23;;;17.77;;
26040;SDS011;13816;53.628;9.950;2024-03-08T12:32:15;25.37;;;16.50;;
26040;SDS011;13816;53.628;9.950;2024-03-08T12:34:46;28.00;;;16.03;;
26040;SDS011;13816;53.628;9.950;2024-03-08T12:37:19;23.17;;;15.97;;
26040;SDS011;13816;53.628;9.950;2024-03-08T12:39:49;22.40;;;15.60;;
26040;SDS011;13816;53.628;9.950;2024-03-08T12:42:21;23.37;;;17.73;;
26040;SDS011;13816;53.628;9.950;2024-03-08T12:44:49;24.30;;;16.67;;
26040;SDS011;13816;53.628;9.950;2024-03-08T12:47:17;25.30;;;18.03;;
26040;SDS011;13816;53.628;9.950;2024-03-08T12:49:45;24.27;;;16.53;;
26040;SDS011;13816;53.628;9.950;2024-03-08T12:52:13;23.90;;;17.70;;
26040;SDS011;13816;53.628;9.950;2024-03-08T12:54:45;23.50;;;16.60;;
26040;SDS011;13816;53.628;9.950;2024-03-08T12:57:17;26.20;;;15.43;;
26040;SDS011;13816;53.628;9.950;2024-03-08T12:59:46;21.77;;;15.70;;
26040;SDS011;13816;53.628;9.950;2024-03-08T13:02:13;23.17;;;17.27;;
26040;SDS011;13816;53.628;9.950;2024-03-08T13:04:42;22.77;;;15.50;;
26040;SDS011;13816;53.628;9.950;2024-03-08T13:07:11;19.90;;;15.10;;
26040;SDS011;13816;53.628;9.950;2024-03-08T13:09:43;25.03;;;17.13;;
26040;SDS011;13816;53.628;9.950;2024-03-08T13:12:11;24.80;;;16.37;;
26040;SDS011;13816;53.628;9.950;2024-03-08T13:14:40;22.53;;;16.10;;
26040;SDS011;13816;53.628;9.950;2024-03-08T13:17:07;23.07;;;15.73;;
26040;SDS011;13816;53.628;9.950;2024-03-08T13:19:37;24.20;;;17.30;;
26040;SDS011;13816;53.628;9.950;2024-03-08T13:22:05;23.63;;;15.60;;
26040;SDS011;13816;53.628;9.950;2024-03-08T13:24:33;22.90;;;15.90;;
26040;SDS011;13816;53.628;9.950;2024-03-08T13:27:01;20.63;;;14.80;;
26040;SDS011;13816;53.628;9.950;2024-03-08T13:29:29;24.93;;;15.70;;
26040;SDS011;13816;53.628;9.950;2024-03-08T13:31:56;21.73;;;15.30;;
26040;SDS011;13816;53.628;9.950;2024-03-08T13:34:28;21.37;;;14.63;;
26040;SDS011;13816;53.628;9.950;2024-03-08T13:36:56;24.30;;;14.93;;
26040;SDS011;13816;53.628;9.950;2024-03-08T13:39:27;26.03;;;15.93;;
26040;SDS011;13816;53.628;9.950;2024-03-08T13:41:55;23.07;;;16.07;;
26040;SDS011;13816;53.628;9.950;2024-03-08T13:44:48;21.10;;;14.30;;
26040;SDS011;13816;53.628;9.950;2024-03-08T13:47:40;22.50;;;14.30;;
26040;SDS011;13816;53.628;9.950;2024-03-08T13:50:08;22.03;;;13.80;;
26040;SDS011;13816;53.628;9.950;2024-03-08T13:52:39;18.47;;;13.77;;
26040;SDS011;13816;53.628;9.950;2024-03-08T13:55:07;19.13;;;14.50;;
26040;SDS011;13816;53.628;9.950;2024-03-08T13:57:35;16.97;;;12.30;;
26040;SDS011;13816;53.628;9.950;2024-03-08T14:00:03;19.03;;;12.40;;
26040;SDS011;13816;53.628;9.950;2024-03-08T14:02:38;18.30;;;13.20;;
26040;SDS011;13816;53.628;9.950;2024-03-08T14:05:07;19.73;;;13.17;;
26040;SDS011;13816;53.628;9.950;2024-03-08T14:08:02;18.50;;;12.83;;
26040;SDS011;13816;53.628;9.950;2024-03-08T14:10:30;21.50;;;13.37;;
26040;SDS011;13816;53.628;9.950;2024-03-08T14:12:57;19.23;;;13.00;;
26040;SDS011;13816;53.628;9.950;2024-03-08T14:15:26;18.57;;;14.07;;
26040;SDS011;13816;53.628;9.950;2024-03-08T14:17:54;20.33;;;13.57;;
26040;SDS011;13816;53.628;9.950;2024-03-08T14:20:22;21.50;;;13.23;;
26040;SDS011;13816;53.628;9.950;2024-03-08T14:22:55;23.30;;;14.60;;
26040;SDS011;13816;53.628;9.950;2024-03-08T14:29:29;21.60;;;15.03;;
26040;SDS011;13816;53.628;9.950;2024-03-08T14:31:59;20.60;;;15.03;;
26040;SDS011;13816;53.628;9.950;2024-03-08T14:34:27;21.90;;;14.63;;
26040;SDS011;13816;53.628;9.950;2024-03-08T14:37:05;23.47;;;16.10;;
26040;SDS011;13816;53.628;9.950;2024-03-08T14:39:41;23.23;;;15.23;;
26040;SDS011;13816;53.628;9.950;2024-03-08T14:42:08;21.03;;;15.10;;
26040;SDS011;13816;53.628;9.950;2024-03-08T14:44:40;30.93;;;17.00;;
26040;SDS011;13816;53.628;9.950;2024-03-08T14:47:08;23.87;;;15.93;;
26040;SDS011;13816;53.628;9.950;2024-03-08T14:49:37;24.10;;;16.30;;